Time;durP1;ratioP1;P1;durP2;ratioP2;P2;SDS_P1;SDS_P2;PMS_P1;PMS_P2;Temp;Humidity;BMP_temperature;BMP_pressure;BME280_temperature;BME280_humidity;BME280_pressure;Samples;Min_cycle;Max_cycle;Signal;HPM_P1;HPM_P2
2023/05/21 00:01:17;;;;;;;2.92;2.65;;;15.40;99.90;;;;;;5072142;28;20313;-53
2023/05/21 00:03:44;;;;;;;7.32;3.28;;;15.50;99.90;;;;;;5070803;28;20036;-54
2023/05/21 00:06:12;;;;;;;2.50;2.30;;;15.50;99.90;;;;;;5071559;28;20094;-53
2023/05/21 00:08:38;;;;;;;5.65;2.20;;;15.40;99.90;;;;;;5053199;28;20400;-56
2023/05/21 00:11:04;;;;;;;2.92;2.53;;;15.40;99.90;;;;;;5071790;28;20055;-54
2023/05/21 00:13:30;;;;;;;;;;;15.40;99.90;;;;;;5053910;28;20075;-54
2023/05/21 00:15:55;;;;;;;2.30;2.10;;;15.40;99.90;;;;;;5071743;28;19947;-54
2023/05/21 00:18:21;;;;;;;5.28;2.03;;;15.40;99.90;;;;;;5070871;28;20476;-53
2023/05/21 00:20:47;;;;;;;3.38;2.70;;;15.30;99.90;;;;;;5071633;28;20045;-54
2023/05/21 00:23:12;;;;;;;4.22;2.85;;;15.30;99.90;;;;;;5071628;28;20115;-56
2023/05/21 00:25:38;;;;;;;3.00;2.58;;;15.30;99.90;;;;;;5071182;28;20055;-52
2023/05/21 00:28:03;;;;;;;3.65;2.80;;;15.30;99.90;;;;;;5070341;28;20056;-52
2023/05/21 00:30:29;;;;;;;3.00;2.70;;;15.30;99.90;;;;;;5071009;28;20123;-54
2023/05/21 00:32:57;;;;;;;5.80;2.67;;;15.30;99.90;;;;;;5070660;28;20131;-55
2023/05/21 00:35:23;;;;;;;5.70;2.63;;;15.30;99.90;;;;;;5070807;28;20410;-55
2023/05/21 00:37:48;;;;;;;2.53;2.28;;;15.30;99.90;;;;;;5070435;28;20123;-54
2023/05/21 00:40:15;;;;;;;2.72;2.53;;;15.30;99.90;;;;;;5067849;28;20035;-54
2023/05/21 00:42:40;;;;;;;4.75;2.25;;;15.30;99.90;;;;;;5070943;28;20074;-51
2023/05/21 00:45:07;;;;;;;3.53;3.20;;;15.30;99.90;;;;;;5070854;28;20119;-52
2023/05/21 00:47:34;;;;;;;4.85;2.97;;;15.20;99.90;;;;;;5070100;28;20629;-52
2023/05/21 00:50:01;;;;;;;4.78;3.17;;;15.20;99.90;;;;;;5070705;28;20400;-54
2023/05/21 00:52:27;;;;;;;12.32;3.53;;;15.20;99.90;;;;;;5070659;28;20055;-55
2023/05/21 00:54:53;;;;;;;3.35;3.05;;;15.10;99.90;;;;;;5070842;28;20482;-53
2023/05/21 00:57:20;;;;;;;3.83;3.17;;;15.10;99.90;;;;;;5068628;28;20065;-53
2023/05/21 00:59:49;;;;;;;4.43;2.45;;;15.10;99.90;;;;;;5068930;28;20141;-54
2023/05/21 01:02:17;;;;;;;4.82;2.88;;;15.10;99.90;;;;;;5066723;28;20051;-53
2023/05/21 01:04:43;;;;;;;3.78;2.58;;;15.10;99.90;;;;;;5069752;28;20179;-55
2023/05/21 01:07:09;;;;;;;5.22;2.50;;;15.10;99.90;;;;;;5070473;28;20040;-54
2023/05/21 01:09:35;;;;;;;7.55;3.05;;;15.00;99.90;;;;;;5069655;28;20512;-51
2023/05/21 01:12:02;;;;;;;3.58;2.80;;;15.10;99.90;;;;;;5052440;28;20043;-52
2023/05/21 01:14:30;;;;;;;6.20;2.80;;;15.00;99.90;;;;;;5069310;28;20037;-53
2023/05/21 01:16:56;;;;;;;4.72;2.90;;;15.10;99.90;;;;;;5069403;28;20032;-53
2023/05/21 01:19:23;;;;;;;6.90;4.15;;;15.10;99.90;;;;;;5051708;28;20059;-54
2023/05/21 01:21:51;;;;;;;7.32;2.60;;;15.10;99.90;;;;;;5067627;28;20043;-55
2023/05/21 01:24:17;;;;;;;3.78;3.30;;;15.10;99.90;;;;;;5069606;28;20040;-53
2023/05/21 01:26:45;;;;;;;4.63;2.95;;;15.10;99.90;;;;;;5070607;28;20363;-54
2023/05/21 01:29:11;;;;;;;3.40;3.10;;;15.10;99.90;;;;;;5068891;28;20040;-53
2023/05/21 01:31:44;;;;;;;5.38;3.10;;;15.10;99.90;;;;;;5069754;28;20076;-52
2023/05/21 01:34:12;;;;;;;6.03;3.67;;;15.10;99.90;;;;;;5070055;28;20036;-54
2023/05/21 01:36:44;;;;;;;8.02;3.40;;;15.00;99.90;;;;;;5069569;28;20272;-55
2023/05/21 01:39:18;;;;;;;5.35;3.28;;;15.10;99.90;;;;;;5069348;28;20115;-54
2023/05/21 01:41:46;;;;;;;5.10;3.10;;;15.10;99.90;;;;;;5069460;28;20111;-54
2023/05/21 01:44:13;;;;;;;4.95;3.70;;;15.00;99.90;;;;;;5069939;28;20036;-56
2023/05/21 01:46:39;;;;;;;5.75;3.13;;;15.00;99.90;;;;;;5069317;28;20048;-52
2023/05/21 01:49:06;;;;;;;4.85;3.45;;;15.00;99.90;;;;;;5069308;28;20036;-54
2023/05/21 01:51:33;;;;;;;4.32;3.92;;;15.00;99.90;;;;;;5066193;28;20040;-52
2023/05/21 01:53:58;;;;;;;4.85;4.35;;;15.10;99.90;;;;;;5069497;28;20089;-52
2023/05/21 01:56:24;;;;;;;5.63;4.00;;;15.10;99.90;;;;;;5070235;28;20044;-55
2023/05/21 01:58:51;;;;;;;5.18;4.10;;;15.00;99.90;;;;;;5069462;28;20028;-56
2023/05/21 02:01:16;;;;;;;5.47;3.55;;;15.00;99.90;;;;;;5068757;28;20043;-52
2023/05/21 02:03:42;;;;;;;4.82;3.42;;;15.00;99.90;;;;;;5067683;28;20055;-52
2023/05/21 02:06:07;;;;;;;5.60;3.60;;;15.00;99.90;;;;;;5069809;28;20043;-54
2023/05/21 02:08:33;;;;;;;5.35;3.45;;;15.00;99.90;;;;;;5069648;28;20404;-54
2023/05/21 02:10:58;;;;;;;5.47;4.93;;;15.00;99.90;;;;;;5067661;28;20041;-52
2023/05/21 02:13:24;;;;;;;6.00;3.28;;;15.00;99.90;;;;;;5067939;28;20049;-52
2023/05/21 02:15:53;;;;;;;5.00;4.47;;;15.00;99.90;;;;;;5068049;28;20037;-55
2023/05/21 02:18:20;;;;;;;6.38;3.72;;;15.00;99.90;;;;;;5068483;28;20378;-52
2023/05/21 02:20:46;;;;;;;5.85;3.88;;;15.00;99.90;;;;;;5066764;28;20036;-54
2023/05/21 02:23:11;;;;;;;9.52;4.00;;;14.90;99.90;;;;;;5069228;28;20897;-52
2023/05/21 02:25:37;;;;;;;6.10;3.25;;;14.90;99.90;;;;;;5068064;28;20382;-53
2023/05/21 02:28:03;;;;;;;8.30;4.90;;;14.90;99.90;;;;;;5065615;28;20497;-52
2023/05/21 02:30:28;;;;;;;5.35;3.97;;;14.90;99.90;;;;;;5068180;28;20052;-52
2023/05/21 02:32:54;;;;;;;4.90;3.85;;;14.90;99.90;;;;;;5069173;28;20032;-55
2023/05/21 02:35:20;;;;;;;5.47;3.70;;;14.80;99.90;;;;;;5068534;28;20090;-52
2023/05/21 02:37:45;;;;;;;7.72;3.83;;;14.80;99.90;;;;;;5068058;28;20036;-54
2023/05/21 02:40:12;;;;;;;6.00;3.67;;;14.80;99.90;;;;;;5068763;28;20028;-54
2023/05/21 02:42:40;;;;;;;5.50;3.60;;;14.70;99.90;;;;;;5068736;28;20032;-51
2023/05/21 02:45:10;;;;;;;5.10;4.00;;;14.80;99.90;;;;;;5050435;28;20098;-52
2023/05/21 02:47:37;;;;;;;7.30;3.85;;;14.70;99.90;;;;;;5050513;28;20089;-54
2023/05/21 02:50:04;;;;;;;5.75;3.95;;;14.70;99.90;;;;;;5068673;28;20490;-53
2023/05/21 02:52:30;;;;;;;6.70;3.78;;;14.70;99.90;;;;;;5068779;28;20044;-52
2023/05/21 02:54:55;;;;;;;4.43;4.03;;;14.70;99.90;;;;;;5068609;28;20386;-53
2023/05/21 02:57:21;;;;;;;6.53;3.88;;;14.60;99.90;;;;;;5050387;28;20262;-52
2023/05/21 02:59:47;;;;;;;4.13;3.75;;;14.60;99.90;;;;;;5067914;28;20032;-53
2023/05/21 03:02:12;;;;;;;6.10;4.30;;;14.60;99.90;;;;;;5068795;28;20039;-55
2023/05/21 03:04:44;;;;;;;6.75;3.92;;;14.60;99.90;;;;;;5072183;28;20044;-54
2023/05/21 03:07:14;;;;;;;8.45;5.20;;;14.60;99.90;;;;;;5072987;28;20075;-53
2023/05/21 03:09:41;;;;;;;5.57;4.13;;;14.50;99.90;;;;;;5072297;28;20063;-51
2023/05/21 03:12:07;;;;;;;8.25;4.88;;;14.50;99.90;;;;;;5072185;28;20112;-54
2023/05/21 03:14:32;;;;;;;5.57;4.35;;;14.50;99.90;;;;;;5072135;28;20402;-53
2023/05/21 03:16:58;;;;;;;10.38;4.88;;;14.50;99.90;;;;;;5072654;28;20037;-54
2023/05/21 03:19:24;;;;;;;6.05;4.18;;;14.50;99.90;;;;;;5072193;28;20078;-52
2023/05/21 03:21:49;;;;;;;7.72;4.65;;;14.40;99.90;;;;;;5072583;28;20515;-52
2023/05/21 03:24:15;;;;;;;5.60;5.10;;;14.40;99.90;;;;;;5072714;28;20287;-55
2023/05/21 03:26:41;;;;;;;5.40;4.80;;;14.40;99.90;;;;;;5072355;28;20048;-50
2023/05/21 03:29:06;;;;;;;10.82;5.30;;;14.40;99.90;;;;;;5071810;28;20509;-52
2023/05/21 03:31:32;;;;;;;11.48;4.55;;;14.40;99.90;;;;;;5070714;28;20143;-52
2023/05/21 03:33:57;;;;;;;10.10;4.75;;;14.40;99.90;;;;;;5069842;28;20033;-53
2023/05/21 03:36:23;;;;;;;9.68;4.72;;;14.40;99.90;;;;;;5070050;28;20477;-53
2023/05/21 03:38:49;;;;;;;8.63;5.43;;;14.40;99.90;;;;;;5070164;28;20116;-55
2023/05/21 03:41:14;;;;;;;4.93;4.53;;;14.40;99.90;;;;;;5071575;28;20036;-52
2023/05/21 03:43:40;;;;;;;9.02;4.95;;;14.40;99.90;;;;;;5071595;28;20047;-54
2023/05/21 03:46:06;;;;;;;9.57;5.18;;;14.40;99.90;;;;;;5072110;28;20032;-52
2023/05/21 03:48:31;;;;;;;7.68;5.55;;;14.40;99.90;;;;;;5071638;28;20050;-54
2023/05/21 03:50:57;;;;;;;6.93;5.22;;;14.40;99.90;;;;;;5072027;28;20097;-52
2023/05/21 03:53:23;;;;;;;9.20;5.03;;;14.40;99.90;;;;;;5072199;28;20473;-53
2023/05/21 03:55:53;;;;;;;10.38;6.10;;;14.40;99.90;;;;;;5071786;28;20040;-53
2023/05/21 03:58:21;;;;;;;10.50;5.65;;;14.40;99.90;;;;;;5071069;28;20044;-52
2023/05/21 04:00:47;;;;;;;5.25;4.50;;;14.40;99.90;;;;;;5072038;28;20047;-55
2023/05/21 04:03:13;;;;;;;6.93;4.70;;;14.40;99.90;;;;;;5053402;28;20123;-55
2023/05/21 04:05:40;;;;;;;5.65;4.53;;;14.40;99.90;;;;;;5071637;28;20523;-52
2023/05/21 04:08:06;;;;;;;6.70;5.22;;;14.40;99.90;;;;;;5070607;28;20350;-55
2023/05/21 04:10:31;;;;;;;5.63;4.70;;;14.40;99.90;;;;;;5071540;28;20028;-52
2023/05/21 04:12:57;;;;;;;6.28;4.95;;;14.40;99.90;;;;;;5070965;28;20051;-55
2023/05/21 04:15:24;;;;;;;10.00;5.95;;;14.40;99.90;;;;;;5070581;28;20089;-54
2023/05/21 04:17:51;;;;;;;6.05;4.78;;;14.40;99.90;;;;;;5052934;28;20115;-52
2023/05/21 04:20:17;;;;;;;6.72;5.38;;;14.40;99.90;;;;;;5071050;28;20112;-54
2023/05/21 04:22:42;;;;;;;6.40;4.75;;;14.40;99.90;;;;;;5071482;28;20086;-54
2023/05/21 04:25:08;;;;;;;10.38;5.57;;;14.50;99.90;;;;;;5070365;28;20036;-52
2023/05/21 04:27:35;;;;;;;11.13;5.70;;;14.50;99.90;;;;;;5070662;28;20107;-55
2023/05/21 04:30:03;;;;;;;8.18;6.00;;;14.50;99.90;;;;;;5071083;28;20036;-52
2023/05/21 04:32:30;;;;;;;7.60;5.18;;;14.50;99.90;;;;;;5067294;28;20097;-50
2023/05/21 04:34:56;;;;;;;9.15;5.13;;;14.50;99.90;;;;;;5070801;28;20485;-52
2023/05/21 04:37:23;;;;;;;9.50;5.65;;;14.50;99.90;;;;;;5070620;28;20049;-53
2023/05/21 04:39:49;;;;;;;6.80;4.80;;;14.50;99.90;;;;;;5070260;28;20449;-53
2023/05/21 04:42:15;;;;;;;6.95;4.95;;;14.50;99.90;;;;;;5070987;28;20070;-52
2023/05/21 04:44:43;;;;;;;8.20;5.22;;;14.50;99.90;;;;;;5070911;28;20158;-55
2023/05/21 04:47:09;;;;;;;10.77;5.85;;;14.50;99.90;;;;;;5070683;28;20041;-51
2023/05/21 04:49:34;;;;;;;8.43;4.85;;;14.50;99.90;;;;;;5070127;28;20056;-53
2023/05/21 04:52:01;;;;;;;7.82;5.05;;;14.50;99.90;;;;;;5070503;28;20037;-53
2023/05/21 04:54:27;;;;;;;;;;;14.50;99.90;;;;;;5070715;28;20075;-54
2023/05/21 04:56:52;;;;;;;8.00;4.78;;;14.50;99.90;;;;;;5070594;28;19928;-54
2023/05/21 04:59:18;;;;;;;11.38;5.63;;;14.50;99.90;;;;;;5070148;28;20182;-53
2023/05/21 05:01:44;;;;;;;6.93;5.50;;;14.50;99.90;;;;;;5070415;28;20429;-54
2023/05/21 05:04:10;;;;;;;5.68;5.10;;;14.50;99.90;;;;;;5070010;28;20046;-50
2023/05/21 05:06:35;;;;;;;7.85;5.43;;;14.50;99.90;;;;;;5070378;28;20029;-54
2023/05/21 05:09:01;;;;;;;6.70;5.10;;;14.50;99.90;;;;;;5069176;28;20036;-52
2023/05/21 05:11:26;;;;;;;10.05;5.47;;;14.50;99.90;;;;;;5070390;28;20032;-52
2023/05/21 05:13:52;;;;;;;7.60;4.75;;;14.50;99.90;;;;;;5069673;28;20032;-53
2023/05/21 05:16:23;;;;;;;8.75;5.40;;;14.50;99.90;;;;;;5070214;28;20032;-54
2023/05/21 05:18:52;;;;;;;6.82;4.78;;;14.50;99.90;;;;;;5069358;28;20047;-50
2023/05/21 05:21:20;;;;;;;9.50;6.38;;;14.50;99.90;;;;;;5067650;28;20409;-53
2023/05/21 05:23:45;;;;;;;8.05;5.68;;;14.50;99.90;;;;;;5070093;28;20052;-51
2023/05/21 05:26:11;;;;;;;6.97;5.18;;;14.60;99.90;;;;;;5070243;28;20028;-51
2023/05/21 05:28:36;;;;;;;9.38;4.43;;;14.60;99.90;;;;;;5069712;28;20058;-53
2023/05/21 05:31:02;;;;;;;7.22;5.38;;;14.60;99.90;;;;;;5051845;28;20041;-51
2023/05/21 05:33:27;;;;;;;9.32;5.75;;;14.60;99.90;;;;;;5069947;28;20028;-52
2023/05/21 05:35:53;;;;;;;6.65;5.35;;;14.60;99.90;;;;;;5069478;28;20056;-55
2023/05/21 05:38:19;;;;;;;13.18;4.75;;;14.60;99.90;;;;;;5069354;28;20477;-51
2023/05/21 05:40:44;;;;;;;6.70;4.30;;;14.60;99.90;;;;;;5069957;28;20037;-52
2023/05/21 05:43:10;;;;;;;7.38;4.57;;;14.60;99.90;;;;;;5070120;28;20071;-52
2023/05/21 05:45:36;;;;;;;7.82;4.72;;;14.60;99.90;;;;;;5069781;28;20040;-51
2023/05/21 05:48:01;;;;;;;9.70;5.88;;;14.70;99.90;;;;;;5069620;28;20037;-51
2023/05/21 05:50:27;;;;;;;5.28;4.13;;;14.70;99.90;;;;;;5069105;28;20036;-51
2023/05/21 05:52:52;;;;;;;29.15;6.47;;;14.70;99.90;;;;;;5068056;28;20128;-52
2023/05/21 05:55:18;;;;;;;19.05;5.22;;;14.70;99.90;;;;;;5069213;28;20043;-53
2023/05/21 05:57:44;;;;;;;5.97;4.38;;;14.70;99.90;;;;;;5066140;28;20028;-52
2023/05/21 06:00:10;;;;;;;7.78;4.72;;;14.70;99.90;;;;;;5069474;28;20036;-52
2023/05/21 06:02:36;;;;;;;10.32;4.85;;;14.70;99.90;;;;;;5069012;28;20033;-50
2023/05/21 06:05:02;;;;;;;5.93;3.55;;;14.70;99.90;;;;;;5065446;28;20404;-53
2023/05/21 06:07:28;;;;;;;6.10;4.30;;;14.70;99.90;;;;;;5068241;28;20505;-52
2023/05/21 06:09:54;;;;;;;14.23;4.85;;;14.80;99.90;;;;;;5068661;28;20090;-55
2023/05/21 06:12:20;;;;;;;8.65;4.65;;;14.80;99.90;;;;;;5050513;28;20044;-55
2023/05/21 06:14:47;;;;;;;6.60;4.03;;;14.90;99.90;;;;;;5068883;28;20043;-51
2023/05/21 06:17:13;;;;;;;5.15;3.90;;;14.90;99.90;;;;;;5063810;28;20154;-53
2023/05/21 06:19:39;;;;;;;9.57;4.68;;;14.90;99.90;;;;;;5066669;28;20033;-52
2023/05/21 06:22:04;;;;;;;6.47;4.03;;;15.00;99.90;;;;;;5068218;28;20484;-53
2023/05/21 06:24:30;;;;;;;10.57;4.60;;;15.00;99.90;;;;;;5065913;28;20464;-52
2023/05/21 06:26:56;;;;;;;4.35;3.83;;;15.00;99.90;;;;;;5068328;28;20044;-55
2023/05/21 06:29:21;;;;;;;6.10;4.25;;;15.00;99.90;;;;;;5068184;28;20068;-53
2023/05/21 06:31:47;;;;;;;7.18;4.20;;;15.10;99.90;;;;;;5068511;28;20067;-56
2023/05/21 06:34:13;;;;;;;6.68;3.85;;;15.10;99.90;;;;;;5066584;28;20036;-53
2023/05/21 06:36:38;;;;;;;5.10;4.05;;;15.10;99.90;;;;;;5068382;28;20060;-51
2023/05/21 06:39:04;;;;;;;4.57;4.00;;;15.10;99.90;;;;;;5066516;28;20033;-52
2023/05/21 06:41:30;;;;;;;6.13;4.57;;;15.20;99.90;;;;;;5050680;28;20036;-52
2023/05/21 06:43:55;;;;;;;6.25;4.55;;;15.20;99.90;;;;;;5068701;28;20040;-54
2023/05/21 06:46:21;;;;;;;7.90;4.25;;;15.20;99.90;;;;;;5068443;28;20037;-52
2023/05/21 06:48:47;;;;;;;5.03;3.63;;;15.30;99.90;;;;;;5068202;28;20415;-51
2023/05/21 06:51:12;;;;;;;6.28;3.10;;;15.30;99.90;;;;;;5068393;28;20040;-51
2023/05/21 06:53:38;;;;;;;9.95;4.15;;;15.40;99.90;;;;;;5065993;28;20033;-53
2023/05/21 06:56:04;;;;;;;11.05;4.50;;;15.30;99.90;;;;;;5066825;28;20413;-52
2023/05/21 06:58:30;;;;;;;14.43;4.30;;;15.40;99.90;;;;;;5067474;28;20128;-55
2023/05/21 07:00:56;;;;;;;6.47;3.72;;;15.40;99.90;;;;;;5065916;28;20390;-52
2023/05/21 07:03:22;;;;;;;6.70;4.00;;;15.40;99.90;;;;;;5068322;28;20044;-51
2023/05/21 07:05:48;;;;;;;6.63;3.97;;;15.50;99.90;;;;;;5068392;28;20174;-51
2023/05/21 07:08:13;;;;;;;7.78;3.83;;;15.50;99.90;;;;;;5068037;28;20051;-54
2023/05/21 07:10:39;;;;;;;6.63;3.60;;;15.50;99.90;;;;;;5068091;28;20656;-54
2023/05/21 07:13:05;;;;;;;4.63;3.65;;;15.60;99.90;;;;;;5064329;28;20040;-53
2023/05/21 07:15:30;;;;;;;4.70;3.63;;;15.60;99.90;;;;;;5066257;28;20345;-54
2023/05/21 07:17:56;;;;;;;5.03;3.90;;;15.70;99.90;;;;;;5067784;28;20043;-54
2023/05/21 07:20:21;;;;;;;6.03;3.78;;;15.70;99.90;;;;;;5066919;28;20036;-52
2023/05/21 07:22:47;;;;;;;6.05;3.63;;;15.70;99.90;;;;;;5067521;28;20040;-53
2023/05/21 07:25:13;;;;;;;7.43;4.57;;;15.80;99.90;;;;;;5067817;28;20409;-53
2023/05/21 07:27:38;;;;;;;9.23;3.88;;;15.90;99.90;;;;;;5067890;28;20029;-54
2023/05/21 07:30:04;;;;;;;3.90;3.50;;;15.90;99.90;;;;;;5050126;28;20477;-54
2023/05/21 07:32:30;;;;;;;;;;;15.90;99.90;;;;;;5068040;28;20037;-52
2023/05/21 07:34:55;;;;;;;4.88;4.03;;;16.00;99.90;;;;;;5067245;28;19931;-56
2023/05/21 07:37:21;;;;;;;5.38;4.10;;;16.00;99.90;;;;;;5067946;28;20402;-54
2023/05/21 07:39:47;;;;;;;8.65;4.00;;;16.10;99.90;;;;;;5067625;28;20374;-52
2023/05/21 07:42:12;;;;;;;6.47;3.92;;;16.20;99.90;;;;;;5033338;28;20237;-53
2023/05/21 07:44:38;;;;;;;7.30;4.00;;;16.20;99.90;;;;;;5068267;28;20044;-54
2023/05/21 07:47:03;;;;;;;9.65;4.85;;;16.20;99.90;;;;;;5067636;28;20044;-53
2023/05/21 07:49:29;;;;;;;8.80;4.05;;;16.20;99.90;;;;;;5067282;28;20119;-55
2023/05/21 07:51:55;;;;;;;5.80;4.43;;;16.20;99.90;;;;;;5070271;28;20029;-54
2023/05/21 07:54:21;;;;;;;9.27;4.68;;;16.20;99.90;;;;;;5068801;28;20234;-53
2023/05/21 07:56:46;;;;;;;5.75;4.60;;;16.30;99.90;;;;;;5071456;28;20575;-56
2023/05/21 07:59:15;;;;;;;7.63;4.57;;;16.40;99.90;;;;;;5069876;28;20036;-55
2023/05/21 08:01:42;;;;;;;7.50;4.20;;;16.50;99.90;;;;;;5070355;28;20077;-52
2023/05/21 08:04:08;;;;;;;10.43;4.50;;;16.60;99.90;;;;;;5070843;28;20040;-52
2023/05/21 08:06:33;;;;;;;7.25;4.40;;;16.70;99.90;;;;;;5071356;28;20036;-52
2023/05/21 08:09:02;;;;;;;6.40;4.57;;;16.80;99.90;;;;;;5070801;28;20145;-53
2023/05/21 08:11:28;;;;;;;8.05;3.80;;;16.90;99.90;;;;;;5068928;28;20131;-53
2023/05/21 08:13:55;;;;;;;11.25;4.60;;;17.00;99.90;;;;;;5069048;28;20529;-53
2023/05/21 08:16:22;;;;;;;8.80;4.18;;;17.20;99.90;;;;;;5070208;28;20138;-56
2023/05/21 08:18:48;;;;;;;11.07;3.83;;;17.30;99.90;;;;;;5070090;28;20068;-60
2023/05/21 08:21:13;;;;;;;7.22;3.83;;;17.50;99.90;;;;;;5068437;28;20513;-59
2023/05/21 08:23:39;;;;;;;7.15;4.32;;;17.70;99.90;;;;;;5052693;28;20204;-55
2023/05/21 08:26:05;;;;;;;33.40;6.55;;;17.90;99.90;;;;;;5070254;28;20671;-54
2023/05/21 08:28:31;;;;;;;11.25;5.05;;;18.10;99.90;;;;;;5070562;28;20543;-56
2023/05/21 08:30:57;;;;;;;11.60;3.80;;;18.30;99.90;;;;;;5069428;28;20048;-55
2023/05/21 08:33:22;;;;;;;6.78;3.72;;;18.50;99.90;;;;;;5052306;28;20040;-57
2023/05/21 08:35:48;;;;;;;6.85;3.83;;;18.70;99.90;;;;;;5069860;28;20047;-58
2023/05/21 08:38:15;;;;;;;9.52;4.20;;;18.80;99.90;;;;;;5069833;28;20067;-57
2023/05/21 08:40:41;;;;;;;10.93;4.68;;;18.90;99.90;;;;;;5069624;28;20032;-57
2023/05/21 08:43:11;;;;;;;8.00;5.13;;;19.00;99.90;;;;;;5070836;28;20374;-56
2023/05/21 08:45:41;;;;;;;10.32;4.60;;;19.10;99.90;;;;;;5069424;28;20048;-53
2023/05/21 08:48:09;;;;;;;12.80;4.80;;;19.20;99.90;;;;;;5050184;28;20036;-52
2023/05/21 08:50:34;;;;;;;6.88;4.53;;;19.20;99.90;;;;;;5069691;28;20032;-51
2023/05/21 08:53:00;;;;;;;6.22;4.82;;;19.30;99.90;;;;;;5069945;28;20505;-50
2023/05/21 08:55:26;;;;;;;;;;;19.40;99.90;;;;;;5070258;28;20032;-54
2023/05/21 08:57:53;;;;;;;7.15;5.00;;;19.40;99.90;;;;;;5068234;28;19916;-54
2023/05/21 09:00:23;;;;;;;7.30;5.07;;;19.40;99.90;;;;;;5069237;28;20038;-54
2023/05/21 09:02:53;;;;;;;6.80;4.70;;;19.50;99.90;;;;;;5069525;28;20464;-55
2023/05/21 09:05:19;;;;;;;9.82;5.07;;;19.70;99.90;;;;;;5069867;28;20135;-56
2023/05/21 09:07:52;;;;;;;9.32;5.00;;;19.70;99.90;;;;;;5069945;28;20036;-53
2023/05/21 09:10:25;;;;;;;7.28;5.20;;;19.70;99.90;;;;;;5069937;28;20102;-56
2023/05/21 09:12:51;;;;;;;6.93;5.18;;;19.80;99.90;;;;;;5069478;28;20045;-54
2023/05/21 09:15:17;;;;;;;7.38;4.88;;;19.80;99.90;;;;;;5069125;28;20039;-57
2023/05/21 09:17:45;;;;;;;;;;;19.90;99.90;;;;;;5069333;28;20052;-56
2023/05/21 09:20:15;;;;;;;6.80;4.82;;;19.90;99.90;;;;;;5050307;28;20448;-60
2023/05/21 09:22:48;;;;;;;13.75;5.47;;;19.90;99.90;;;;;;5069419;28;20037;-59
2023/05/21 09:25:15;;;;;;;8.93;5.72;;;19.90;99.90;;;;;;5068379;28;20032;-59
2023/05/21 09:27:42;;;;;;;8.55;5.95;;;19.90;99.90;;;;;;5068733;28;20550;-59
2023/05/21 09:30:13;;;;;;;9.23;5.15;;;20.00;99.90;;;;;;5070117;28;20045;-60
2023/05/21 09:32:40;;;;;;;9.18;6.20;;;20.00;99.90;;;;;;5066343;28;20512;-60
2023/05/21 09:35:15;;;;;;;9.98;5.10;;;20.10;99.90;;;;;;5051210;28;20575;-60
2023/05/21 09:37:44;;;;;;;7.68;5.68;;;20.20;99.90;;;;;;5068838;28;20449;-60
2023/05/21 09:40:17;;;;;;;7.78;5.75;;;20.20;99.90;;;;;;5069804;28;20102;-60
2023/05/21 09:42:50;;;;;;;9.63;6.10;;;20.20;99.90;;;;;;5066449;28;20045;-60
2023/05/21 09:45:26;;;;;;;15.43;6.03;;;20.30;99.50;;;;;;5068172;28;20040;-60
2023/05/21 09:47:53;;;;;;;8.68;5.50;;;20.30;99.60;;;;;;5068862;28;20086;-60
2023/05/21 09:50:23;;;;;;;8.70;6.40;;;20.30;99.50;;;;;;5069537;28;20240;-60
2023/05/21 09:52:51;;;;;;;6.72;4.80;;;20.30;99.70;;;;;;5068405;28;20093;-60
2023/05/21 09:55:21;;;;;;;9.80;6.65;;;20.40;99.80;;;;;;5066703;28;20032;-60
2023/05/21 09:57:47;;;;;;;12.50;6.38;;;20.50;99.60;;;;;;5067762;28;20497;-60
2023/05/21 10:00:31;;;;;;;10.18;6.25;;;20.50;99.50;;;;;;5066877;28;20083;-61
2023/05/21 10:02:59;;;;;;;11.10;7.00;;;20.60;99.20;;;;;;5068007;28;20040;-61
2023/05/21 10:05:27;;;;;;;6.47;5.63;;;20.60;99.40;;;;;;5066509;28;20032;-61
2023/05/21 10:08:00;;;;;;;9.60;6.35;;;20.70;99.50;;;;;;5067750;28;20047;-61
2023/05/21 10:10:28;;;;;;;10.35;7.20;;;20.80;99.40;;;;;;5069063;28;20028;-61
2023/05/21 10:12:59;;;;;;;8.52;7.18;;;20.80;99.10;;;;;;5067552;28;20391;-61
2023/05/21 10:15:29;;;;;;;10.35;7.57;;;20.90;99.10;;;;;;5069179;28;20032;-61
2023/05/21 10:17:56;;;;;;;46.28;10.25;;;20.90;99.00;;;;;;5065660;28;20405;-61
2023/05/21 10:20:22;;;;;;;7.30;6.53;;;21.00;99.30;;;;;;5068587;28;20041;-62
2023/05/21 10:22:49;;;;;;;10.80;8.65;;;21.00;98.90;;;;;;5068666;28;20047;-61
2023/05/21 10:25:16;;;;;;;11.88;9.73;;;21.10;98.90;;;;;;5069166;28;20048;-60
2023/05/21 10:27:42;;;;;;;13.23;8.02;;;21.20;98.90;;;;;;5065447;28;20063;-61
2023/05/21 10:30:08;;;;;;;;;;;21.30;98.90;;;;;;5052158;28;20093;-61
2023/05/21 10:32:34;;;;;;;11.95;8.27;;;21.40;98.60;;;;;;5068496;28;19920;-60
2023/05/21 10:35:01;;;;;;;;;;;21.50;98.50;;;;;;5066866;28;20485;-62
2023/05/21 10:37:27;;;;;;;9.80;8.13;;;21.50;98.60;;;;;;5067787;28;20359;-61
2023/05/21 10:39:54;;;;;;;13.77;8.77;;;21.70;98.50;;;;;;5066169;28;20037;-62
2023/05/21 10:42:22;;;;;;;11.73;10.45;;;21.80;98.40;;;;;;5066221;28;20040;-62
2023/05/21 10:45:15;;;;;;;19.67;11.25;;;21.90;98.40;;;;;;5051052;28;20040;-61
2023/05/21 10:48:08;;;;;;;11.25;9.85;;;22.00;98.30;;;;;;5064399;28;20523;-61
2023/05/21 10:50:44;;;;;;;13.68;10.57;;;22.10;98.20;;;;;;5066887;28;20052;-61
2023/05/21 10:53:32;;;;;;;14.43;11.63;;;22.20;98.00;;;;;;5068249;28;20103;-61
2023/05/21 10:56:35;;;;;;;11.93;9.88;;;22.20;97.80;;;;;;5068129;28;20040;-61
2023/05/21 10:59:34;;;;;;;10.88;9.15;;;22.30;97.90;;;;;;5067221;28;20440;-62
2023/05/21 11:02:01;;;;;;;17.83;10.85;;;22.30;97.70;;;;;;5067688;28;20053;-62
2023/05/21 11:04:28;;;;;;;163.18;20.38;;;22.40;98.00;;;;;;5067996;28;20036;-61
2023/05/21 11:06:55;;;;;;;18.13;13.48;;;22.40;97.70;;;;;;5068657;28;20075;-62
2023/05/21 11:09:20;;;;;;;16.38;14.25;;;22.50;97.60;;;;;;5068116;28;20040;-62
2023/05/21 11:11:49;;;;;;;;;;;22.50;97.50;;;;;;5069370;28;20045;-62
2023/05/21 11:14:33;;;;;;;12.20;10.85;;;22.50;97.20;;;;;;5068509;28;19916;-62
2023/05/21 11:17:00;;;;;;;16.67;12.52;;;22.50;97.50;;;;;;5066694;28;20032;-62
2023/05/21 11:19:50;;;;;;;25.40;14.05;;;22.50;97.30;;;;;;5067855;28;20037;-62
2023/05/21 11:22:26;;;;;;;19.38;13.35;;;22.50;97.60;;;;;;5067006;28;20048;-62
2023/05/21 11:24:53;;;;;;;16.40;13.00;;;22.60;97.10;;;;;;5069342;28;20036;-62
2023/05/21 11:27:40;;;;;;;17.33;14.07;;;22.60;97.50;;;;;;5069960;28;20509;-62
2023/05/21 11:30:07;;;;;;;18.67;13.07;;;22.80;97.30;;;;;;5070084;28;20541;-62
2023/05/21 11:32:39;;;;;;;20.83;14.20;;;22.80;97.40;;;;;;5071818;28;20401;-62
2023/05/21 11:35:05;;;;;;;17.33;13.75;;;23.00;97.10;;;;;;5072122;28;20041;-62
2023/05/21 11:37:33;;;;;;;;;;;23.00;96.90;;;;;;5071249;28;20033;-62
2023/05/21 11:40:19;;;;;;;14.48;12.48;;;23.10;97.00;;;;;;5071818;28;19920;-62
2023/05/21 11:42:51;;;;;;;13.75;12.30;;;23.20;96.80;;;;;;5054716;28;20043;-62
2023/05/21 11:45:27;;;;;;;21.83;14.90;;;23.30;96.70;;;;;;5068985;28;20046;-62
2023/05/21 11:47:54;;;;;;;14.43;12.80;;;23.40;96.50;;;;;;5069036;28;20517;-62
2023/05/21 11:50:20;;;;;;;19.02;13.38;;;23.50;96.20;;;;;;5072165;28;20035;-62
2023/05/21 11:52:47;;;;;;;16.20;14.32;;;23.50;96.10;;;;;;5070139;28;20037;-63
2023/05/21 11:55:14;;;;;;;13.98;12.18;;;23.60;96.00;;;;;;5071492;28;20067;-62
2023/05/21 11:57:46;;;;;;;18.23;14.30;;;23.60;96.10;;;;;;5071160;28;20036;-63
2023/05/21 12:00:15;;;;;;;15.60;13.77;;;23.70;96.20;;;;;;5069405;28;20493;-62
2023/05/21 12:02:51;;;;;;;21.88;14.95;;;23.80;96.00;;;;;;5073267;28;20076;-62
2023/05/21 12:05:17;;;;;;;21.00;14.93;;;23.90;95.90;;;;;;5069704;28;20032;-62
2023/05/21 12:07:47;;;;;;;18.63;13.95;;;23.90;96.10;;;;;;5069327;28;20670;-62
2023/05/21 12:10:13;;;;;;;14.07;12.68;;;24.00;95.80;;;;;;5068707;28;20039;-63
2023/05/21 12:12:38;;;;;;;17.02;12.90;;;24.10;95.80;;;;;;5070615;28;20036;-61
2023/05/21 12:15:05;;;;;;;19.67;14.88;;;24.10;95.70;;;;;;5069466;28;20105;-60
2023/05/21 12:17:31;;;;;;;58.85;19.13;;;24.20;95.60;;;;;;5070725;28;20393;-62
2023/05/21 12:19:58;;;;;;;22.45;15.50;;;24.20;95.50;;;;;;5070198;28;20090;-62
2023/05/21 12:22:24;;;;;;;17.77;13.45;;;24.30;95.50;;;;;;5071400;28;20032;-62
2023/05/21 12:24:50;;;;;;;18.77;13.30;;;24.30;95.30;;;;;;5070362;28;20129;-62
2023/05/21 12:27:17;;;;;;;22.08;15.25;;;24.40;95.10;;;;;;5070676;28;20040;-62
2023/05/21 12:29:44;;;;;;;15.88;13.98;;;24.40;95.10;;;;;;5069527;28;20047;-62
2023/05/21 12:32:12;;;;;;;17.45;13.38;;;24.50;95.40;;;;;;5070944;28;20493;-61
2023/05/21 12:34:53;;;;;;;16.98;13.82;;;24.50;94.80;;;;;;5069283;28;20064;-61
2023/05/21 12:37:23;;;;;;;34.38;15.05;;;24.60;94.60;;;;;;5070117;28;20076;-60
2023/05/21 12:39:50;;;;;;;16.08;13.93;;;24.60;94.30;;;;;;5069774;28;20471;-61
2023/05/21 12:42:22;;;;;;;22.02;14.68;;;24.60;94.60;;;;;;5072231;28;20040;-61
2023/05/21 12:44:48;;;;;;;19.02;13.07;;;24.50;94.40;;;;;;5057128;28;20064;-60
2023/05/21 12:47:14;;;;;;;24.08;14.68;;;24.40;94.20;;;;;;5052123;28;20041;-61